sensor_id;sensor_type;location;lat;lon;timestamp;temperature;humidity
72940;DHT22;61094;51.154;13.570;2023-01-24T00:01:48;1.50;99.90
72940;DHT22;61094;51.154;13.570;2023-01-24T00:03:49;1.50;99.90
72940;DHT22;61094;51.154;13.570;2023-01-24T00:05:51;1.50;99.90
72940;DHT22;61094;51.154;13.570;2023-01-24T00:07:52;1.50;99.90
72940;DHT22;61094;51.154;13.570;2023-01-24T00:09:54;1.50;99.90
72940;DHT22;61094;51.154;13.570;2023-01-24T00:11:57;1.50;99.90
72940;DHT22;61094;51.154;13.570;2023-01-24T00:13:59;1.50;99.90
72940;DHT22;61094;51.154;13.570;2023-01-24T00:16:04;1.50;99.90
72940;DHT22;61094;51.154;13.570;2023-01-24T00:18:06;1.50;99.90
72940;DHT22;61094;51.154;13.570;2023-01-24T00:20:09;1.50;99.90
72940;DHT22;61094;51.154;13.570;2023-01-24T00:22:11;1.50;99.90
72940;DHT22;61094;51.154;13.570;2023-01-24T00:24:13;1.50;99.90
72940;DHT22;61094;51.154;13.570;2023-01-24T00:26:15;1.50;99.90
72940;DHT22;61094;51.154;13.570;2023-01-24T00:28:20;1.50;99.90
72940;DHT22;61094;51.154;13.570;2023-01-24T00:30:22;1.50;99.90
72940;DHT22;61094;51.154;13.570;2023-01-24T00:32:24;1.50;99.90
72940;DHT22;61094;51.154;13.570;2023-01-24T00:34:26;1.50;99.90
72940;DHT22;61094;51.154;13.570;2023-01-24T00:36:27;1.50;99.90
72940;DHT22;61094;51.154;13.570;2023-01-24T00:38:29;1.50;99.90
72940;DHT22;61094;51.154;13.570;2023-01-24T00:40:31;1.50;99.90
72940;DHT22;61094;51.154;13.570;2023-01-24T00:42:33;1.40;99.90
72940;DHT22;61094;51.154;13.570;2023-01-24T00:44:36;1.50;99.90
72940;DHT22;61094;51.154;13.570;2023-01-24T00:46:37;1.40;99.90
72940;DHT22;61094;51.154;13.570;2023-01-24T00:48:39;1.50;99.90
72940;DHT22;61094;51.154;13.570;2023-01-24T00:50:41;1.50;99.90
72940;DHT22;61094;51.154;13.570;2023-01-24T00:52:43;1.40;99.90
72940;DHT22;61094;51.154;13.570;2023-01-24T00:54:46;1.40;99.90
72940;DHT22;61094;51.154;13.570;2023-01-24T00:56:48;1.40;99.90
72940;DHT22;61094;51.154;13.570;2023-01-24T00:58:50;1.50;99.90
72940;DHT22;61094;51.154;13.570;2023-01-24T01:00:55;1.40;99.90
72940;DHT22;61094;51.154;13.570;2023-01-24T01:02:57;1.40;99.90
72940;DHT22;61094;51.154;13.570;2023-01-24T01:04:59;1.40;99.90
72940;DHT22;61094;51.154;13.570;2023-01-24T01:07:00;1.40;99.90
72940;DHT22;61094;51.154;13.570;2023-01-24T01:09:02;1.40;99.90
72940;DHT22;61094;51.154;13.570;2023-01-24T01:11:04;1.40;99.90
72940;DHT22;61094;51.154;13.570;2023-01-24T01:13:06;1.50;99.90
72940;DHT22;61094;51.154;13.570;2023-01-24T01:15:09;1.40;99.90
72940;DHT22;61094;51.154;13.570;2023-01-24T01:17:12;1.40;99.90
72940;DHT22;61094;51.154;13.570;2023-01-24T01:19:14;1.50;99.90
72940;DHT22;61094;51.154;13.570;2023-01-24T01:21:17;1.40;99.90
72940;DHT22;61094;51.154;13.570;2023-01-24T01:23:19;1.50;99.90
72940;DHT22;61094;51.154;13.570;2023-01-24T01:25:21;1.40;99.90
72940;DHT22;61094;51.154;13.570;2023-01-24T01:27:23;1.40;99.90
72940;DHT22;61094;51.154;13.570;2023-01-24T01:29:25;1.40;99.90
72940;DHT22;61094;51.154;13.570;2023-01-24T01:31:27;1.40;99.90
72940;DHT22;61094;51.154;13.570;2023-01-24T01:33:30;1.40;99.90
72940;DHT22;61094;51.154;13.570;2023-01-24T01:35:32;1.40;99.90
72940;DHT22;61094;51.154;13.570;2023-01-24T01:37:34;1.40;99.90
72940;DHT22;61094;51.154;13.570;2023-01-24T01:39:35;1.40;99.90
72940;DHT22;61094;51.154;13.570;2023-01-24T01:41:37;1.40;99.90
72940;DHT22;61094;51.154;13.570;2023-01-24T01:43:39;1.40;99.90
72940;DHT22;61094;51.154;13.570;2023-01-24T01:46:09;1.40;99.90
72940;DHT22;61094;51.154;13.570;2023-01-24T01:48:25;1.40;99.90
72940;DHT22;61094;51.154;13.570;2023-01-24T01:50:35;1.30;99.90
72940;DHT22;61094;51.154;13.570;2023-01-24T01:52:40;1.40;99.90
72940;DHT22;61094;51.154;13.570;2023-01-24T01:54:44;1.30;99.90
72940;DHT22;61094;51.154;13.570;2023-01-24T01:56:50;1.40;99.90
72940;DHT22;61094;51.154;13.570;2023-01-24T01:58:53;1.30;99.90
72940;DHT22;61094;51.154;13.570;2023-01-24T02:00:56;1.40;99.90
72940;DHT22;61094;51.154;13.570;2023-01-24T02:02:59;1.40;99.90
72940;DHT22;61094;51.154;13.570;2023-01-24T02:05:20;1.40;99.90
72940;DHT22;61094;51.154;13.570;2023-01-24T02:07:27;1.40;99.90
72940;DHT22;61094;51.154;13.570;2023-01-24T02:09:33;1.40;99.90
72940;DHT22;61094;51.154;13.570;2023-01-24T02:11:36;1.30;99.90
72940;DHT22;61094;51.154;13.570;2023-01-24T02:13:39;1.40;99.90
72940;DHT22;61094;51.154;13.570;2023-01-24T02:15:45;1.40;99.90
72940;DHT22;61094;51.154;13.570;2023-01-24T02:18:05;1.40;99.90
72940;DHT22;61094;51.154;13.570;2023-01-24T02:20:17;1.40;99.90
72940;DHT22;61094;51.154;13.570;2023-01-24T02:22:27;1.40;99.90
72940;DHT22;61094;51.154;13.570;2023-01-24T02:24:35;1.30;99.90
72940;DHT22;61094;51.154;13.570;2023-01-24T02:26:41;1.30;99.90
72940;DHT22;61094;51.154;13.570;2023-01-24T02:28:46;1.30;99.90
72940;DHT22;61094;51.154;13.570;2023-01-24T02:30:50;1.30;99.90
72940;DHT22;61094;51.154;13.570;2023-01-24T02:32:52;1.30;99.90
72940;DHT22;61094;51.154;13.570;2023-01-24T02:34:54;1.40;99.90
72940;DHT22;61094;51.154;13.570;2023-01-24T02:37:00;1.30;99.90
72940;DHT22;61094;51.154;13.570;2023-01-24T02:39:06;1.40;99.90
72940;DHT22;61094;51.154;13.570;2023-01-24T02:41:11;1.30;99.90
72940;DHT22;61094;51.154;13.570;2023-01-24T02:43:16;1.40;99.90
72940;DHT22;61094;51.154;13.570;2023-01-24T02:45:21;1.40;99.90
72940;DHT22;61094;51.154;13.570;2023-01-24T02:47:27;1.40;99.90
72940;DHT22;61094;51.154;13.570;2023-01-24T02:49:32;1.40;99.90
72940;DHT22;61094;51.154;13.570;2023-01-24T02:51:34;1.30;99.90
72940;DHT22;61094;51.154;13.570;2023-01-24T02:53:53;1.30;99.90
72940;DHT22;61094;51.154;13.570;2023-01-24T02:55:54;1.40;99.90
72940;DHT22;61094;51.154;13.570;2023-01-24T02:58:14;1.40;99.90
72940;DHT22;61094;51.154;13.570;2023-01-24T03:00:16;1.40;99.90
72940;DHT22;61094;51.154;13.570;2023-01-24T03:02:18;1.40;99.90
72940;DHT22;61094;51.154;13.570;2023-01-24T03:04:20;1.40;99.90
72940;DHT22;61094;51.154;13.570;2023-01-24T03:06:22;1.40;99.90
72940;DHT22;61094;51.154;13.570;2023-01-24T03:08:25;1.40;99.90
72940;DHT22;61094;51.154;13.570;2023-01-24T03:10:28;1.40;99.90
72940;DHT22;61094;51.154;13.570;2023-01-24T03:12:30;1.40;99.90
72940;DHT22;61094;51.154;13.570;2023-01-24T03:14:51;1.40;99.90
72940;DHT22;61094;51.154;13.570;2023-01-24T03:17:11;1.40;99.90
72940;DHT22;61094;51.154;13.570;2023-01-24T03:19:30;1.40;99.90
72940;DHT22;61094;51.154;13.570;2023-01-24T03:21:49;1.30;99.90
72940;DHT22;61094;51.154;13.570;2023-01-24T03:24:08;1.40;99.90
72940;DHT22;61094;51.154;13.570;2023-01-24T03:26:28;1.30;99.90
72940;DHT22;61094;51.154;13.570;2023-01-24T03:28:48;1.30;99.90
72940;DHT22;61094;51.154;13.570;2023-01-24T03:31:10;1.30;99.90
72940;DHT22;61094;51.154;13.570;2023-01-24T03:33:30;1.30;99.90
72940;DHT22;61094;51.154;13.570;2023-01-24T03:35:50;1.30;99.90
72940;DHT22;61094;51.154;13.570;2023-01-24T03:37:57;1.30;99.90
72940;DHT22;61094;51.154;13.570;2023-01-24T03:40:17;1.30;99.90
72940;DHT22;61094;51.154;13.570;2023-01-24T03:42:21;1.30;99.90
72940;DHT22;61094;51.154;13.570;2023-01-24T03:44:23;1.30;99.90
72940;DHT22;61094;51.154;13.570;2023-01-24T03:46:26;1.30;99.90
72940;DHT22;61094;51.154;13.570;2023-01-24T03:48:29;1.30;99.90
72940;DHT22;61094;51.154;13.570;2023-01-24T03:50:38;1.30;99.90
72940;DHT22;61094;51.154;13.570;2023-01-24T03:53:04;1.30;99.90
72940;DHT22;61094;51.154;13.570;2023-01-24T03:55:06;1.30;99.90
72940;DHT22;61094;51.154;13.570;2023-01-24T03:57:09;1.30;99.90
72940;DHT22;61094;51.154;13.570;2023-01-24T03:59:11;1.30;99.90
72940;DHT22;61094;51.154;13.570;2023-01-24T04:01:14;1.30;99.90
72940;DHT22;61094;51.154;13.570;2023-01-24T04:03:36;1.30;99.90
72940;DHT22;61094;51.154;13.570;2023-01-24T04:05:38;1.30;99.90
72940;DHT22;61094;51.154;13.570;2023-01-24T04:07:39;1.30;99.90
72940;DHT22;61094;51.154;13.570;2023-01-24T04:09:42;1.30;99.90
72940;DHT22;61094;51.154;13.570;2023-01-24T04:11:44;1.30;99.90
72940;DHT22;61094;51.154;13.570;2023-01-24T04:13:51;1.30;99.90
72940;DHT22;61094;51.154;13.570;2023-01-24T04:15:53;1.30;99.90
72940;DHT22;61094;51.154;13.570;2023-01-24T04:18:13;1.30;99.90
72940;DHT22;61094;51.154;13.570;2023-01-24T04:20:17;1.30;99.90
72940;DHT22;61094;51.154;13.570;2023-01-24T04:22:19;1.30;99.90
72940;DHT22;61094;51.154;13.570;2023-01-24T04:24:20;1.30;99.90
72940;DHT22;61094;51.154;13.570;2023-01-24T04:26:22;1.30;99.90
72940;DHT22;61094;51.154;13.570;2023-01-24T04:28:26;1.30;99.90
72940;DHT22;61094;51.154;13.570;2023-01-24T04:30:28;1.30;99.90
72940;DHT22;61094;51.154;13.570;2023-01-24T04:32:32;1.30;99.90
72940;DHT22;61094;51.154;13.570;2023-01-24T04:34:38;1.30;99.90
72940;DHT22;61094;51.154;13.570;2023-01-24T04:36:48;1.30;99.90
72940;DHT22;61094;51.154;13.570;2023-01-24T04:38:50;1.30;99.90
72940;DHT22;61094;51.154;13.570;2023-01-24T04:40:58;1.30;99.90
72940;DHT22;61094;51.154;13.570;2023-01-24T04:43:02;1.30;99.90
72940;DHT22;61094;51.154;13.570;2023-01-24T04:45:06;1.30;99.90
72940;DHT22;61094;51.154;13.570;2023-01-24T04:47:08;1.30;99.90
72940;DHT22;61094;51.154;13.570;2023-01-24T04:49:10;1.30;99.90
72940;DHT22;61094;51.154;13.570;2023-01-24T04:51:16;1.30;99.90
72940;DHT22;61094;51.154;13.570;2023-01-24T04:53:21;1.30;99.90
72940;DHT22;61094;51.154;13.570;2023-01-24T04:55:25;1.30;99.90
72940;DHT22;61094;51.154;13.570;2023-01-24T04:57:27;1.30;99.90
72940;DHT22;61094;51.154;13.570;2023-01-24T04:59:28;1.30;99.90
72940;DHT22;61094;51.154;13.570;2023-01-24T05:01:31;1.30;99.90
72940;DHT22;61094;51.154;13.570;2023-01-24T05:03:39;1.30;99.90
72940;DHT22;61094;51.154;13.570;2023-01-24T05:05:41;1.30;99.90
72940;DHT22;61094;51.154;13.570;2023-01-24T05:07:42;1.30;99.90
72940;DHT22;61094;51.154;13.570;2023-01-24T05:09:50;1.30;99.90
72940;DHT22;61094;51.154;13.570;2023-01-24T05:11:52;1.30;99.90
72940;DHT22;61094;51.154;13.570;2023-01-24T05:13:54;1.30;99.90
72940;DHT22;61094;51.154;13.570;2023-01-24T05:15:55;1.30;99.90
72940;DHT22;61094;51.154;13.570;2023-01-24T05:17:57;1.30;99.90
72940;DHT22;61094;51.154;13.570;2023-01-24T05:20:00;1.30;99.90
72940;DHT22;61094;51.154;13.570;2023-01-24T05:22:02;1.30;99.90
72940;DHT22;61094;51.154;13.570;2023-01-24T05:24:09;1.30;99.90
72940;DHT22;61094;51.154;13.570;2023-01-24T05:26:13;1.30;99.90
72940;DHT22;61094;51.154;13.570;2023-01-24T05:28:15;1.30;99.90
72940;DHT22;61094;51.154;13.570;2023-01-24T05:30:20;1.30;99.90
72940;DHT22;61094;51.154;13.570;2023-01-24T05:32:26;1.30;99.90
72940;DHT22;61094;51.154;13.570;2023-01-24T05:34:28;1.30;99.90
72940;DHT22;61094;51.154;13.570;2023-01-24T05:36:30;1.30;99.90
72940;DHT22;61094;51.154;13.570;2023-01-24T05:38:33;1.30;99.90
72940;DHT22;61094;51.154;13.570;2023-01-24T05:40:35;1.40;99.90
72940;DHT22;61094;51.154;13.570;2023-01-24T05:42:39;1.40;99.90
72940;DHT22;61094;51.154;13.570;2023-01-24T05:44:41;1.30;99.90
72940;DHT22;61094;51.154;13.570;2023-01-24T05:46:43;1.30;99.90
72940;DHT22;61094;51.154;13.570;2023-01-24T05:48:50;1.40;99.90
72940;DHT22;61094;51.154;13.570;2023-01-24T05:50:57;1.40;99.90
72940;DHT22;61094;51.154;13.570;2023-01-24T05:53:01;1.40;99.90
72940;DHT22;61094;51.154;13.570;2023-01-24T05:55:03;1.40;99.90
72940;DHT22;61094;51.154;13.570;2023-01-24T05:57:09;1.40;99.90
72940;DHT22;61094;51.154;13.570;2023-01-24T05:59:33;1.40;99.90
72940;DHT22;61094;51.154;13.570;2023-01-24T06:01:34;1.30;99.90
72940;DHT22;61094;51.154;13.570;2023-01-24T06:03:37;1.40;99.90
72940;DHT22;61094;51.154;13.570;2023-01-24T06:05:39;1.40;99.90
72940;DHT22;61094;51.154;13.570;2023-01-24T06:07:40;1.40;99.90
72940;DHT22;61094;51.154;13.570;2023-01-24T06:09:42;1.40;99.90
72940;DHT22;61094;51.154;13.570;2023-01-24T06:11:45;1.40;99.90
72940;DHT22;61094;51.154;13.570;2023-01-24T06:13:54;1.40;99.90
72940;DHT22;61094;51.154;13.570;2023-01-24T06:16:05;1.50;99.90
72940;DHT22;61094;51.154;13.570;2023-01-24T06:18:13;1.50;99.90
72940;DHT22;61094;51.154;13.570;2023-01-24T06:20:16;1.50;99.90
72940;DHT22;61094;51.154;13.570;2023-01-24T06:22:24;1.50;99.90
72940;DHT22;61094;51.154;13.570;2023-01-24T06:24:29;1.50;99.90
72940;DHT22;61094;51.154;13.570;2023-01-24T06:26:50;1.40;99.90
72940;DHT22;61094;51.154;13.570;2023-01-24T06:28:53;1.40;99.90
72940;DHT22;61094;51.154;13.570;2023-01-24T06:31:03;1.40;99.90
72940;DHT22;61094;51.154;13.570;2023-01-24T06:33:14;1.40;99.90
72940;DHT22;61094;51.154;13.570;2023-01-24T06:35:25;1.40;99.90
72940;DHT22;61094;51.154;13.570;2023-01-24T06:37:32;1.40;99.90
72940;DHT22;61094;51.154;13.570;2023-01-24T06:39:38;1.40;99.90
72940;DHT22;61094;51.154;13.570;2023-01-24T06:41:40;1.40;99.90
72940;DHT22;61094;51.154;13.570;2023-01-24T06:43:43;1.40;99.90
72940;DHT22;61094;51.154;13.570;2023-01-24T06:45:45;1.40;99.90
72940;DHT22;61094;51.154;13.570;2023-01-24T06:47:48;1.40;99.90
72940;DHT22;61094;51.154;13.570;2023-01-24T06:49:49;1.40;99.90
72940;DHT22;61094;51.154;13.570;2023-01-24T06:51:51;1.40;99.90
72940;DHT22;61094;51.154;13.570;2023-01-24T06:53:53;1.40;99.90
72940;DHT22;61094;51.154;13.570;2023-01-24T06:55:55;1.40;99.90
72940;DHT22;61094;51.154;13.570;2023-01-24T06:57:57;1.50;99.90
72940;DHT22;61094;51.154;13.570;2023-01-24T06:59:59;1.50;99.90
72940;DHT22;61094;51.154;13.570;2023-01-24T07:02:01;1.50;99.90
72940;DHT22;61094;51.154;13.570;2023-01-24T07:04:04;1.50;99.90
72940;DHT22;61094;51.154;13.570;2023-01-24T07:06:06;1.50;99.90
72940;DHT22;61094;51.154;13.570;2023-01-24T07:08:07;1.50;99.90
72940;DHT22;61094;51.154;13.570;2023-01-24T07:10:10;1.40;99.90
72940;DHT22;61094;51.154;13.570;2023-01-24T07:12:11;1.40;99.90
72940;DHT22;61094;51.154;13.570;2023-01-24T07:14:13;1.40;99.90
72940;DHT22;61094;51.154;13.570;2023-01-24T07:16:15;1.40;99.90
72940;DHT22;61094;51.154;13.570;2023-01-24T07:18:18;1.40;99.90
72940;DHT22;61094;51.154;13.570;2023-01-24T07:20:21;1.40;99.90
72940;DHT22;61094;51.154;13.570;2023-01-24T07:22:23;1.40;99.90
72940;DHT22;61094;51.154;13.570;2023-01-24T07:24:27;1.40;99.90
72940;DHT22;61094;51.154;13.570;2023-01-24T07:26:30;1.40;99.90
72940;DHT22;61094;51.154;13.570;2023-01-24T07:28:32;1.40;99.90
72940;DHT22;61094;51.154;13.570;2023-01-24T07:30:33;1.40;99.90
72940;DHT22;61094;51.154;13.570;2023-01-24T07:32:35;1.40;99.90
72940;DHT22;61094;51.154;13.570;2023-01-24T07:34:37;1.40;99.90
72940;DHT22;61094;51.154;13.570;2023-01-24T07:36:41;1.40;99.90
72940;DHT22;61094;51.154;13.570;2023-01-24T07:38:43;1.40;99.90
72940;DHT22;61094;51.154;13.570;2023-01-24T07:40:45;1.40;99.90
72940;DHT22;61094;51.154;13.570;2023-01-24T07:42:46;1.40;99.90
72940;DHT22;61094;51.154;13.570;2023-01-24T07:44:48;1.40;99.90
72940;DHT22;61094;51.154;13.570;2023-01-24T07:46:50;1.40;99.90
72940;DHT22;61094;51.154;13.570;2023-01-24T07:48:51;1.40;99.90
72940;DHT22;61094;51.154;13.570;2023-01-24T07:50:53;1.40;99.90
72940;DHT22;61094;51.154;13.570;2023-01-24T07:52:57;1.50;99.90
72940;DHT22;61094;51.154;13.570;2023-01-24T07:54:58;1.40;99.90
72940;DHT22;61094;51.154;13.570;2023-01-24T07:57:00;1.40;99.90
72940;DHT22;61094;51.154;13.570;2023-01-24T07:59:02;1.40;99.90
72940;DHT22;61094;51.154;13.570;2023-01-24T08:01:04;1.50;99.90
72940;DHT22;61094;51.154;13.570;2023-01-24T08:03:05;1.40;99.90
72940;DHT22;61094;51.154;13.570;2023-01-24T08:05:07;1.40;99.90
72940;DHT22;61094;51.154;13.570;2023-01-24T08:07:09;1.50;99.90
72940;DHT22;61094;51.154;13.570;2023-01-24T08:09:21;1.50;99.90
72940;DHT22;61094;51.154;13.570;2023-01-24T08:11:23;1.50;99.90
72940;DHT22;61094;51.154;13.570;2023-01-24T08:13:25;1.50;99.90
72940;DHT22;61094;51.154;13.570;2023-01-24T08:15:27;1.50;99.90
72940;DHT22;61094;51.154;13.570;2023-01-24T08:17:29;1.50;99.90
72940;DHT22;61094;51.154;13.570;2023-01-24T08:19:30;1.50;99.90
72940;DHT22;61094;51.154;13.570;2023-01-24T08:23:25;1.50;99.90
72940;DHT22;61094;51.154;13.570;2023-01-24T08:25:27;2.60;99.90
72940;DHT22;61094;51.154;13.570;2023-01-24T08:27:30;4.20;99.90
72940;DHT22;61094;51.154;13.570;2023-01-24T08:29:32;5.90;99.90
72940;DHT22;61094;51.154;13.570;2023-01-24T08:31:34;7.60;99.90
72940;DHT22;61094;51.154;13.570;2023-01-24T08:33:35;9.00;99.90
72940;DHT22;61094;51.154;13.570;2023-01-24T08:35:38;10.30;99.90
72940;DHT22;61094;51.154;13.570;2023-01-24T08:37:39;11.50;99.90
72940;DHT22;61094;51.154;13.570;2023-01-24T08:39:42;12.40;99.90
72940;DHT22;61094;51.154;13.570;2023-01-24T08:41:44;13.30;99.90
72940;DHT22;61094;51.154;13.570;2023-01-24T08:43:46;14.00;99.90
72940;DHT22;61094;51.154;13.570;2023-01-24T08:45:52;14.60;99.90
72940;DHT22;61094;51.154;13.570;2023-01-24T08:47:54;15.20;99.90
72940;DHT22;61094;51.154;13.570;2023-01-24T08:49:56;15.70;99.90
72940;DHT22;61094;51.154;13.570;2023-01-24T08:51:57;16.20;99.90
72940;DHT22;61094;51.154;13.570;2023-01-24T08:54:00;16.60;99.90
72940;DHT22;61094;51.154;13.570;2023-01-24T08:56:03;16.90;99.90
72940;DHT22;61094;51.154;13.570;2023-01-24T08:57:35;17.30;99.90
72940;DHT22;61094;51.154;13.570;2023-01-24T08:58:37;17.50;99.90
72940;DHT22;61094;51.154;13.570;2023-01-24T08:59:38;17.60;99.90
72940;DHT22;61094;51.154;13.570;2023-01-24T09:00:39;17.70;99.90
72940;DHT22;61094;51.154;13.570;2023-01-24T09:01:40;17.90;99.90
72940;DHT22;61094;51.154;13.570;2023-01-24T09:02:42;18.00;99.90
72940;DHT22;61094;51.154;13.570;2023-01-24T09:03:43;18.10;99.90
72940;DHT22;61094;51.154;13.570;2023-01-24T09:04:44;18.20;99.90
72940;DHT22;61094;51.154;13.570;2023-01-24T09:05:46;18.40;99.90
72940;DHT22;61094;51.154;13.570;2023-01-24T09:06:47;18.50;99.90
72940;DHT22;61094;51.154;13.570;2023-01-24T09:07:48;18.60;99.90
72940;DHT22;61094;51.154;13.570;2023-01-24T09:08:51;18.60;99.90
72940;DHT22;61094;51.154;13.570;2023-01-24T09:09:53;18.70;99.90
72940;DHT22;61094;51.154;13.570;2023-01-24T09:10:57;18.80;99.90
72940;DHT22;61094;51.154;13.570;2023-01-24T09:11:59;18.90;99.90
72940;DHT22;61094;51.154;13.570;2023-01-24T09:13:02;19.00;99.90
72940;DHT22;61094;51.154;13.570;2023-01-24T09:14:04;19.10;99.90
72940;DHT22;61094;51.154;13.570;2023-01-24T09:15:06;19.10;99.90
72940;DHT22;61094;51.154;13.570;2023-01-24T09:16:08;19.20;99.90
72940;DHT22;61094;51.154;13.570;2023-01-24T09:17:10;19.20;99.90
72940;DHT22;61094;51.154;13.570;2023-01-24T09:18:12;19.30;99.90
72940;DHT22;61094;51.154;13.570;2023-01-24T09:19:12;19.30;99.90
72940;DHT22;61094;51.154;13.570;2023-01-24T09:20:15;19.40;99.90
72940;DHT22;61094;51.154;13.570;2023-01-24T09:21:15;19.40;99.90
72940;DHT22;61094;51.154;13.570;2023-01-24T09:22:17;19.40;99.90
72940;DHT22;61094;51.154;13.570;2023-01-24T09:23:19;19.40;99.90
72940;DHT22;61094;51.154;13.570;2023-01-24T09:24:20;19.50;99.90
72940;DHT22;61094;51.154;13.570;2023-01-24T09:25:21;19.50;99.90
72940;DHT22;61094;51.154;13.570;2023-01-24T09:26:23;19.50;96.60
72940;DHT22;61094;51.154;13.570;2023-01-24T09:27:25;19.60;99.90
72940;DHT22;61094;51.154;13.570;2023-01-24T09:28:27;19.60;99.90
72940;DHT22;61094;51.154;13.570;2023-01-24T09:29:28;19.60;97.00
72940;DHT22;61094;51.154;13.570;2023-01-24T09:30:30;19.60;99.90
72940;DHT22;61094;51.154;13.570;2023-01-24T09:31:31;19.60;99.90
72940;DHT22;61094;51.154;13.570;2023-01-24T09:32:32;19.60;99.90
72940;DHT22;61094;51.154;13.570;2023-01-24T09:33:34;19.70;99.90
72940;DHT22;61094;51.154;13.570;2023-01-24T09:34:36;19.70;99.90
72940;DHT22;61094;51.154;13.570;2023-01-24T09:35:37;19.70;99.90
72940;DHT22;61094;51.154;13.570;2023-01-24T09:36:38;19.70;99.90
72940;DHT22;61094;51.154;13.570;2023-01-24T09:37:40;19.80;99.90
72940;DHT22;61094;51.154;13.570;2023-01-24T09:38:43;19.80;99.90
72940;DHT22;61094;51.154;13.570;2023-01-24T09:39:45;19.80;99.90
72940;DHT22;61094;51.154;13.570;2023-01-24T09:40:50;19.90;99.90
72940;DHT22;61094;51.154;13.570;2023-01-24T09:41:59;19.90;99.90
72940;DHT22;61094;51.154;13.570;2023-01-24T09:43:04;20.00;99.90
72940;DHT22;61094;51.154;13.570;2023-01-24T09:44:15;20.00;99.90
72940;DHT22;61094;51.154;13.570;2023-01-24T09:45:23;20.10;99.20
72940;DHT22;61094;51.154;13.570;2023-01-24T09:46:30;20.10;92.20
72940;DHT22;61094;51.154;13.570;2023-01-24T09:47:40;20.20;99.10
72940;DHT22;61094;51.154;13.570;2023-01-24T09:48:43;20.30;98.90
72940;DHT22;61094;51.154;13.570;2023-01-24T09:49:49;20.30;94.10
72940;DHT22;61094;51.154;13.570;2023-01-24T09:50:55;20.40;93.60
72940;DHT22;61094;51.154;13.570;2023-01-24T09:51:58;20.40;97.80
72940;DHT22;61094;51.154;13.570;2023-01-24T09:53:01;20.50;96.20
72940;DHT22;61094;51.154;13.570;2023-01-24T09:54:04;20.50;94.90
72940;DHT22;61094;51.154;13.570;2023-01-24T09:55:13;20.60;92.30
72940;DHT22;61094;51.154;13.570;2023-01-24T09:56:21;20.60;93.30
72940;DHT22;61094;51.154;13.570;2023-01-24T09:57:29;20.70;91.90
72940;DHT22;61094;51.154;13.570;2023-01-24T09:58:34;20.70;78.40
72940;DHT22;61094;51.154;13.570;2023-01-24T09:59:41;20.70;76.20
72940;DHT22;61094;51.154;13.570;2023-01-24T10:00:43;20.80;78.70
72940;DHT22;61094;51.154;13.570;2023-01-24T10:01:46;20.80;75.10
72940;DHT22;61094;51.154;13.570;2023-01-24T10:02:47;20.90;83.20
72940;DHT22;61094;51.154;13.570;2023-01-24T10:03:49;20.90;77.20
72940;DHT22;61094;51.154;13.570;2023-01-24T10:04:50;20.90;76.20
72940;DHT22;61094;51.154;13.570;2023-01-24T10:05:53;20.90;74.40
72940;DHT22;61094;51.154;13.570;2023-01-24T10:07:15;21.00;82.60
72940;DHT22;61094;51.154;13.570;2023-01-24T10:08:26;21.00;81.60
72940;DHT22;61094;51.154;13.570;2023-01-24T10:09:35;21.00;77.10
72940;DHT22;61094;51.154;13.570;2023-01-24T10:10:44;21.00;79.00
72940;DHT22;61094;51.154;13.570;2023-01-24T10:11:51;21.10;75.90
72940;DHT22;61094;51.154;13.570;2023-01-24T10:13:00;21.10;68.70
72940;DHT22;61094;51.154;13.570;2023-01-24T10:15:39;21.10;75.00
72940;DHT22;61094;51.154;13.570;2023-01-24T10:16:59;21.20;73.80
72940;DHT22;61094;51.154;13.570;2023-01-24T10:18:22;21.20;79.00
72940;DHT22;61094;51.154;13.570;2023-01-24T10:19:45;21.20;75.20
72940;DHT22;61094;51.154;13.570;2023-01-24T10:21:01;21.20;90.60
72940;DHT22;61094;51.154;13.570;2023-01-24T10:22:18;21.20;69.10
72940;DHT22;61094;51.154;13.570;2023-01-24T10:23:24;21.20;68.40
72940;DHT22;61094;51.154;13.570;2023-01-24T10:24:31;21.20;74.50
72940;DHT22;61094;51.154;13.570;2023-01-24T10:25:42;21.20;80.50
72940;DHT22;61094;51.154;13.570;2023-01-24T10:26:48;21.20;65.90
72940;DHT22;61094;51.154;13.570;2023-01-24T10:27:52;21.20;66.60
72940;DHT22;61094;51.154;13.570;2023-01-24T10:28:56;21.20;73.60
72940;DHT22;61094;51.154;13.570;2023-01-24T10:30:08;21.20;78.80
72940;DHT22;61094;51.154;13.570;2023-01-24T10:31:17;21.20;71.20
72940;DHT22;61094;51.154;13.570;2023-01-24T10:32:30;21.20;68.70
72940;DHT22;61094;51.154;13.570;2023-01-24T10:33:34;21.20;67.10
72940;DHT22;61094;51.154;13.570;2023-01-24T10:34:38;21.20;60.80
72940;DHT22;61094;51.154;13.570;2023-01-24T10:35:51;21.20;62.50
72940;DHT22;61094;51.154;13.570;2023-01-24T10:36:58;21.10;74.50
72940;DHT22;61094;51.154;13.570;2023-01-24T10:38:04;21.10;58.70
72940;DHT22;61094;51.154;13.570;2023-01-24T10:39:06;21.10;53.90
72940;DHT22;61094;51.154;13.570;2023-01-24T10:40:11;21.00;57.30
72940;DHT22;61094;51.154;13.570;2023-01-24T10:41:18;21.00;54.50
72940;DHT22;61094;51.154;13.570;2023-01-24T10:42:22;21.00;97.90
72940;DHT22;61094;51.154;13.570;2023-01-24T10:43:27;20.90;63.90
72940;DHT22;61094;51.154;13.570;2023-01-24T10:44:31;20.90;62.20
72940;DHT22;61094;51.154;13.570;2023-01-24T10:45:45;20.80;62.20
72940;DHT22;61094;51.154;13.570;2023-01-24T10:48:30;20.70;79.20
72940;DHT22;61094;51.154;13.570;2023-01-24T10:49:37;20.60;84.50
72940;DHT22;61094;51.154;13.570;2023-01-24T10:50:41;20.60;80.70
72940;DHT22;61094;51.154;13.570;2023-01-24T10:51:42;20.60;90.30
72940;DHT22;61094;51.154;13.570;2023-01-24T10:52:44;20.60;99.90
72940;DHT22;61094;51.154;13.570;2023-01-24T10:53:47;20.50;90.50
72940;DHT22;61094;51.154;13.570;2023-01-24T10:54:50;20.50;98.60
72940;DHT22;61094;51.154;13.570;2023-01-24T10:55:58;20.50;86.90
72940;DHT22;61094;51.154;13.570;2023-01-24T10:57:00;20.40;81.80
72940;DHT22;61094;51.154;13.570;2023-01-24T10:58:16;20.40;93.30
72940;DHT22;61094;51.154;13.570;2023-01-24T10:59:20;20.40;88.00
72940;DHT22;61094;51.154;13.570;2023-01-24T11:00:28;20.40;99.90
72940;DHT22;61094;51.154;13.570;2023-01-24T11:01:33;20.30;84.90
72940;DHT22;61094;51.154;13.570;2023-01-24T11:02:35;20.30;92.70
72940;DHT22;61094;51.154;13.570;2023-01-24T11:03:39;20.30;79.40
72940;DHT22;61094;51.154;13.570;2023-01-24T11:04:40;20.30;96.20
72940;DHT22;61094;51.154;13.570;2023-01-24T11:05:45;20.30;94.00
72940;DHT22;61094;51.154;13.570;2023-01-24T11:06:48;20.30;94.90
72940;DHT22;61094;51.154;13.570;2023-01-24T11:07:51;20.30;93.50
72940;DHT22;61094;51.154;13.570;2023-01-24T11:08:54;20.30;94.50
72940;DHT22;61094;51.154;13.570;2023-01-24T11:09:59;20.30;97.30